Time;durP1;ratioP1;P1;durP2;ratioP2;P2;SDS_P1;SDS_P2;PMS_P1;PMS_P2;Temp;Humidity;BMP_temperature;BMP_pressure;BME280_temperature;BME280_humidity;BME280_pressure;Samples;Min_cycle;Max_cycle;Signal;HPM_P1;HPM_P2
2022/05/26 00:02:20;;;;;;;9.23;6.97;;;;;;;;;;5017488;28;20659;-66
2022/05/26 00:04:46;;;;;;;11.50;7.38;;;;;;;;;;5061030;28;20103;-65
2022/05/26 00:07:13;;;;;;;10.38;8.05;;;;;;;;;;5038747;28;20055;-66
2022/05/26 00:09:40;;;;;;;10.55;7.70;;;;;;;;;;5061900;28;20140;-66
2022/05/26 00:12:07;;;;;;;11.07;7.70;;;;;;;;;;5062194;28;20072;-66
2022/05/26 00:14:33;;;;;;;12.55;7.68;;;;;;;;;;5049059;28;20235;-66
2022/05/26 00:17:00;;;;;;;11.35;8.05;;;;;;;;;;5050305;28;20040;-66
2022/05/26 00:19:26;;;;;;;12.05;7.35;;;;;;;;;;5054646;28;20048;-66
2022/05/26 00:21:52;;;;;;;12.85;7.05;;;;;;;;;;5062303;28;20052;-66
2022/05/26 00:24:19;;;;;;;10.50;7.75;;;;;;;;;;5037771;28;20080;-65
2022/05/26 00:26:46;;;;;;;14.23;8.40;;;;;;;;;;5040166;28;20208;-65
2022/05/26 00:29:13;;;;;;;10.23;8.35;;;;;;;;;;5054629;28;20461;-65
2022/05/26 00:31:40;;;;;;;13.07;8.52;;;;;;;;;;5051582;28;20497;-66
2022/05/26 00:34:06;;;;;;;11.93;8.23;;;;;;;;;;5061521;28;20079;-65
2022/05/26 00:36:38;;;;;;;14.02;8.18;;;;;;;;;;5041388;28;20076;-66
2022/05/26 00:39:06;;;;;;;10.63;7.85;;;;;;;;;;5048802;28;20055;-66
2022/05/26 00:41:33;;;;;;;13.35;8.70;;;;;;;;;;5047547;28;20282;-65
2022/05/26 00:43:59;;;;;;;11.25;8.60;;;;;;;;;;5055062;28;20378;-66
2022/05/26 00:46:32;;;;;;;10.02;7.90;;;;;;;;;;5059541;28;20045;-66
2022/05/26 00:49:00;;;;;;;11.65;8.68;;;;;;;;;;5054293;28;20091;-66
2022/05/26 00:51:29;;;;;;;10.73;8.65;;;;;;;;;;5060189;28;20044;-65
2022/05/26 00:53:57;;;;;;;12.25;8.95;;;;;;;;;;5052017;28;20079;-65
2022/05/26 00:56:27;;;;;;;15.03;9.60;;;;;;;;;;5056314;28;20201;-65
2022/05/26 00:58:56;;;;;;;13.45;9.30;;;;;;;;;;5041898;28;20293;-65
2022/05/26 01:01:22;;;;;;;14.95;9.70;;;;;;;;;;5059536;28;20052;-65
2022/05/26 01:03:52;;;;;;;15.10;9.57;;;;;;;;;;5060549;28;20044;-66
2022/05/26 01:06:24;;;;;;;14.82;9.50;;;;;;;;;;5054726;28;20280;-65
2022/05/26 01:08:53;;;;;;;13.02;9.07;;;;;;;;;;5057015;28;20055;-65
2022/05/26 01:11:19;;;;;;;13.98;9.38;;;;;;;;;;5044517;28;20049;-65
2022/05/26 01:13:47;;;;;;;13.85;8.80;;;;;;;;;;5058816;28;20436;-65
2022/05/26 01:16:27;;;;;;;17.63;8.90;;;;;;;;;;5033956;28;20140;-65
2022/05/26 01:19:06;;;;;;;18.33;9.55;;;;;;;;;;5059762;28;20491;-65
2022/05/26 01:21:32;;;;;;;;;;;;;;;;;;5052563;28;20131;-65
2022/05/26 01:24:17;;;;;;;15.23;9.43;;;;;;;;;;5047147;28;19986;-65
2022/05/26 01:26:43;;;;;;;15.68;9.27;;;;;;;;;;5048059;28;20059;-65
2022/05/26 01:29:31;;;;;;;12.82;9.70;;;;;;;;;;5051253;28;20175;-65
2022/05/26 01:32:11;;;;;;;17.05;8.80;;;;;;;;;;5065563;28;20053;-65
2022/05/26 01:34:58;;;;;;;15.95;9.23;;;;;;;;;;5051537;28;20496;-65
2022/05/26 01:37:28;;;;;;;13.00;8.90;;;;;;;;;;5032709;28;20132;-65
2022/05/26 01:40:06;;;;;;;16.55;9.40;;;;;;;;;;5052531;28;20080;-65
2022/05/26 01:42:36;;;;;;;18.63;10.40;;;;;;;;;;5053509;28;20343;-66
2022/05/26 01:45:12;;;;;;;19.42;10.25;;;;;;;;;;5056621;28;20108;-65
2022/05/26 01:47:57;;;;;;;15.82;8.57;;;;;;;;;;5062213;28;20300;-66
2022/05/26 01:50:28;;;;;;;16.45;10.23;;;;;;;;;;5054376;28;20545;-66
2022/05/26 01:53:01;;;;;;;12.27;8.20;;;;;;;;;;5033814;28;20076;-65
2022/05/26 01:55:32;;;;;;;13.32;9.52;;;;;;;;;;5063435;28;20080;-65
2022/05/26 01:58:06;;;;;;;14.73;8.35;;;;;;;;;;5052016;28;20569;-64
2022/05/26 02:00:32;;;;;;;18.00;10.07;;;;;;;;;;5063328;28;20167;-65
2022/05/26 02:03:02;;;;;;;21.15;11.18;;;;;;;;;;5057727;28;20049;-66
2022/05/26 02:05:31;;;;;;;19.58;10.40;;;;;;;;;;5059055;28;20271;-65
2022/05/26 02:08:06;;;;;;;17.65;9.70;;;;;;;;;;5051593;28;20056;-65
2022/05/26 02:10:34;;;;;;;18.58;10.15;;;;;;;;;;5059202;28;20063;-65
2022/05/26 02:13:03;;;;;;;20.30;9.68;;;;;;;;;;5064140;28;20056;-64
2022/05/26 02:15:32;;;;;;;29.42;10.65;;;;;;;;;;5055839;28;20053;-65
2022/05/26 02:18:08;;;;;;;18.13;10.48;;;;;;;;;;5062832;28;20089;-65
2022/05/26 02:20:54;;;;;;;17.40;9.77;;;;;;;;;;5049667;28;20055;-64
2022/05/26 02:23:32;;;;;;;19.50;9.52;;;;;;;;;;5054636;28;20147;-65
2022/05/26 02:26:00;;;;;;;22.10;10.50;;;;;;;;;;5057772;28;20053;-66
2022/05/26 02:28:27;;;;;;;22.02;10.40;;;;;;;;;;5061405;28;20045;-67
2022/05/26 02:30:53;;;;;;;19.85;10.10;;;;;;;;;;5055236;28;20183;-66
2022/05/26 02:33:20;;;;;;;17.70;10.30;;;;;;;;;;5057426;28;20075;-66
2022/05/26 02:35:49;;;;;;;17.25;10.27;;;;;;;;;;5052501;28;20123;-65
2022/05/26 02:38:17;;;;;;;19.65;9.65;;;;;;;;;;5060025;28;20139;-65
2022/05/26 02:40:44;;;;;;;20.43;9.50;;;;;;;;;;5060037;28;20052;-66
2022/05/26 02:43:19;;;;;;;19.90;10.02;;;;;;;;;;5054106;28;20289;-65
2022/05/26 02:45:49;;;;;;;22.17;10.98;;;;;;;;;;5062501;28;20072;-65
2022/05/26 02:48:37;;;;;;;20.70;10.85;;;;;;;;;;5046542;28;20061;-65
2022/05/26 02:51:07;;;;;;;21.55;11.52;;;;;;;;;;5061961;28;20058;-66
2022/05/26 02:53:46;;;;;;;18.45;10.40;;;;;;;;;;5045162;28;20170;-66
2022/05/26 02:56:25;;;;;;;20.75;9.40;;;;;;;;;;5060740;28;20048;-66
2022/05/26 02:58:57;;;;;;;25.15;11.38;;;;;;;;;;5056426;28;20699;-66
2022/05/26 03:01:29;;;;;;;27.98;11.38;;;;;;;;;;5052311;28;20753;-66
2022/05/26 03:03:58;;;;;;;22.67;10.38;;;;;;;;;;5058495;28;20600;-66
2022/05/26 03:06:32;;;;;;;24.30;10.55;;;;;;;;;;5054258;28;20056;-67
2022/05/26 03:09:00;;;;;;;26.90;11.35;;;;;;;;;;5062928;28;20602;-66
2022/05/26 03:11:29;;;;;;;26.17;10.00;;;;;;;;;;5056390;28;20053;-66
2022/05/26 03:13:55;;;;;;;24.60;10.82;;;;;;;;;;5060108;28;20285;-66
2022/05/26 03:16:22;;;;;;;21.60;9.65;;;;;;;;;;5055575;28;20048;-65
2022/05/26 03:18:48;;;;;;;23.30;10.00;;;;;;;;;;5055071;28;20628;-65
2022/05/26 03:21:14;;;;;;;23.05;9.35;;;;;;;;;;5062448;28;20651;-65
2022/05/26 03:23:41;;;;;;;17.75;8.93;;;;;;;;;;5055327;28;20078;-65
2022/05/26 03:26:08;;;;;;;18.08;9.55;;;;;;;;;;5070924;28;20052;-65
2022/05/26 03:28:34;;;;;;;18.75;8.13;;;;;;;;;;5051201;28;20571;-65
2022/05/26 03:31:04;;;;;;;25.10;9.13;;;;;;;;;;5064593;28;20048;-64
2022/05/26 03:40:46;;;;;;;25.13;8.63;;;;;;;;;;5069471;28;20048;-66
2022/05/26 03:41:47;;;;;;;23.40;8.13;;;;;;;;;;5051190;28;20054;-66
2022/05/26 03:44:14;;;;;;;24.48;8.50;;;;;;;;;;5054685;28;20086;-65
2022/05/26 03:46:40;;;;;;;25.40;8.60;;;;;;;;;;5054152;28;20049;-65
2022/05/26 03:49:06;;;;;;;20.20;7.82;;;;;;;;;;5062163;28;20276;-65
2022/05/26 03:51:33;;;;;;;24.98;8.27;;;;;;;;;;5055523;28;20556;-65
2022/05/26 03:53:59;;;;;;;19.50;8.68;;;;;;;;;;5060951;28;20063;-65
2022/05/26 03:56:26;;;;;;;22.33;8.05;;;;;;;;;;5057380;28;20121;-65
2022/05/26 03:58:52;;;;;;;30.17;9.98;;;;;;;;;;5043750;28;20060;-65
2022/05/26 04:01:19;;;;;;;18.90;7.40;;;;;;;;;;5060981;28;20052;-65
2022/05/26 04:03:46;;;;;;;21.35;8.48;;;;;;;;;;5053885;28;20947;-65
2022/05/26 04:06:12;;;;;;;18.88;7.97;;;;;;;;;;5060193;28;20048;-66
2022/05/26 04:08:39;;;;;;;27.65;8.63;;;;;;;;;;5051416;28;20075;-65
2022/05/26 04:11:05;;;;;;;30.38;8.57;;;;;;;;;;5043639;28;20159;-65
2022/05/26 04:13:32;;;;;;;23.50;7.85;;;;;;;;;;5058233;28;20040;-65
2022/05/26 04:15:58;;;;;;;25.20;8.07;;;;;;;;;;5052977;28;20048;-65
2022/05/26 04:18:25;;;;;;;29.20;8.27;;;;;;;;;;5059939;28;20045;-65
2022/05/26 04:20:51;;;;;;;26.10;8.00;;;;;;;;;;5055298;28;20054;-66
2022/05/26 04:23:17;;;;;;;25.13;8.57;;;;;;;;;;5056385;28;20063;-65
2022/05/26 04:25:44;;;;;;;28.58;8.63;;;;;;;;;;5054216;28;20045;-66
2022/05/26 04:28:10;;;;;;;21.65;8.93;;;;;;;;;;5060755;28;20052;-65
2022/05/26 04:30:36;;;;;;;23.95;7.85;;;;;;;;;;5072248;28;20048;-66
2022/05/26 04:33:03;;;;;;;32.15;8.35;;;;;;;;;;5052015;28;20554;-66
2022/05/26 04:35:35;;;;;;;23.67;7.75;;;;;;;;;;5045472;28;20045;-65
2022/05/26 04:38:01;;;;;;;22.63;7.55;;;;;;;;;;5029059;28;20053;-65
2022/05/26 04:40:27;;;;;;;19.48;7.20;;;;;;;;;;5058367;28;20535;-65
2022/05/26 04:42:54;;;;;;;23.90;6.85;;;;;;;;;;5055361;28;20044;-65
2022/05/26 04:45:20;;;;;;;19.88;7.85;;;;;;;;;;5059552;28;20067;-65
2022/05/26 04:47:46;;;;;;;22.73;6.95;;;;;;;;;;5059734;28;20518;-66
2022/05/26 04:50:13;;;;;;;20.52;6.45;;;;;;;;;;5046731;28;22030;-65
2022/05/26 04:52:39;;;;;;;21.65;7.03;;;;;;;;;;5056679;28;20080;-65
2022/05/26 04:55:06;;;;;;;23.38;6.72;;;;;;;;;;5051521;28;20079;-65
2022/05/26 04:57:32;;;;;;;25.83;7.45;;;;;;;;;;5058231;28;20127;-65
2022/05/26 04:59:59;;;;;;;21.38;6.68;;;;;;;;;;5035922;28;20163;-66
2022/05/26 05:02:25;;;;;;;25.63;7.75;;;;;;;;;;5057330;28;20528;-66
2022/05/26 05:04:53;;;;;;;23.13;7.32;;;;;;;;;;5057845;28;20712;-66
2022/05/26 05:07:19;;;;;;;27.05;7.60;;;;;;;;;;5054711;28;20060;-65
2022/05/26 05:09:46;;;;;;;24.65;7.32;;;;;;;;;;5061150;28;20567;-65
2022/05/26 05:12:15;;;;;;;25.63;7.72;;;;;;;;;;5051460;28;20051;-66
2022/05/26 05:14:44;;;;;;;28.00;7.80;;;;;;;;;;5050021;28;20044;-66
2022/05/26 05:17:10;;;;;;;;;;;;;;;;;;5062587;28;20071;-66
2022/05/26 05:19:37;;;;;;;19.80;6.65;;;;;;;;;;5058296;28;19951;-66
2022/05/26 05:22:25;;;;;;;27.25;8.27;;;;;;;;;;5059872;28;20052;-65
2022/05/26 05:24:54;;;;;;;28.13;7.07;;;;;;;;;;5032585;28;20564;-66
2022/05/26 05:27:39;;;;;;;22.67;6.55;;;;;;;;;;5064421;28;20060;-66
2022/05/26 05:30:10;;;;;;;24.42;7.00;;;;;;;;;;5052073;28;20059;-65
2022/05/26 05:32:44;;;;;;;30.67;7.05;;;;;;;;;;5060033;28;20055;-65
2022/05/26 05:35:15;;;;;;;23.50;6.53;;;;;;;;;;5034300;28;20048;-66
2022/05/26 05:37:42;;;;;;;17.35;6.53;;;;;;;;;;5059571;28;20048;-66
2022/05/26 05:40:09;;;;;;;21.67;7.40;;;;;;;;;;5049842;28;20040;-67
2022/05/26 05:42:36;;;;;;;30.33;7.72;;;;;;;;;;5051843;28;20439;-65
2022/05/26 05:45:02;;;;;;;24.85;6.88;;;;;;;;;;5055423;28;20132;-66
2022/05/26 05:47:29;;;;;;;24.70;6.28;;;;;;;;;;5049399;28;20174;-65
2022/05/26 05:49:55;;;;;;;24.10;6.82;;;;;;;;;;5058529;28;20044;-66
2022/05/26 05:52:23;;;;;;;18.83;5.75;;;;;;;;;;5050069;28;20044;-65
2022/05/26 05:54:50;;;;;;;22.85;6.65;;;;;;;;;;5053438;28;20051;-66
2022/05/26 05:57:17;;;;;;;18.98;6.00;;;;;;;;;;5047758;28;20048;-66
2022/05/26 05:59:43;;;;;;;22.05;6.35;;;;;;;;;;5054158;28;20059;-66
2022/05/26 06:02:09;;;;;;;19.10;6.50;;;;;;;;;;5060797;28;20137;-66
2022/05/26 06:04:57;;;;;;;22.50;6.45;;;;;;;;;;5051691;28;20049;-67
2022/05/26 06:07:23;;;;;;;23.02;6.85;;;;;;;;;;5060843;28;20060;-68
2022/05/26 06:09:50;;;;;;;27.35;6.80;;;;;;;;;;5046428;28;20749;-66
2022/05/26 06:12:18;;;;;;;26.07;6.33;;;;;;;;;;5058390;28;20186;-66
2022/05/26 06:14:44;;;;;;;23.17;6.00;;;;;;;;;;5049143;28;20055;-66
2022/05/26 06:17:11;;;;;;;19.48;5.93;;;;;;;;;;5061228;28;20052;-66
2022/05/26 06:19:39;;;;;;;26.40;5.75;;;;;;;;;;5058606;28;20568;-66
2022/05/26 06:22:06;;;;;;;;;;;;;;;;;;5046104;28;20505;-67
2022/05/26 06:24:32;;;;;;;25.15;5.35;;;;;;;;;;5058806;28;20015;-66
2022/05/26 06:26:58;;;;;;;22.67;5.32;;;;;;;;;;5068520;28;20071;-65
2022/05/26 06:37:41;;;;;;;19.75;4.82;;;;;;;;;;5056300;28;20274;-65
2022/05/26 06:40:07;;;;;;;15.23;4.55;;;;;;;;;;5058102;28;20052;-66
2022/05/26 06:42:34;;;;;;;16.77;4.70;;;;;;;;;;5062730;28;20139;-65
2022/05/26 06:45:01;;;;;;;18.33;4.40;;;;;;;;;;5056409;28;20139;-65
2022/05/26 06:47:27;;;;;;;18.90;4.57;;;;;;;;;;5063052;28;20052;-66
2022/05/26 06:49:53;;;;;;;21.48;5.53;;;;;;;;;;5052961;28;20131;-66
2022/05/26 06:52:22;;;;;;;16.20;4.90;;;;;;;;;;5059191;28;20587;-65
2022/05/26 06:54:48;;;;;;;17.13;5.13;;;;;;;;;;5053253;28;20066;-65
2022/05/26 06:57:15;;;;;;;19.30;5.00;;;;;;;;;;5051365;28;20101;-65
2022/05/26 06:59:42;;;;;;;13.95;4.32;;;;;;;;;;5056846;28;20148;-65
2022/05/26 07:02:09;;;;;;;15.75;3.90;;;;;;;;;;5054253;28;20456;-65
2022/05/26 07:04:37;;;;;;;10.75;3.63;;;;;;;;;;5056776;28;20135;-65
2022/05/26 07:07:03;;;;;;;15.43;4.05;;;;;;;;;;5050111;28;20674;-65
2022/05/26 07:09:30;;;;;;;15.10;4.38;;;;;;;;;;5061528;28;20056;-65
2022/05/26 07:11:58;;;;;;;19.48;4.38;;;;;;;;;;5036506;28;20048;-66
2022/05/26 07:14:24;;;;;;;8.90;3.05;;;;;;;;;;5051650;28;20452;-65
2022/05/26 07:16:51;;;;;;;13.55;2.83;;;;;;;;;;5058960;28;20481;-65
2022/05/26 07:19:18;;;;;;;10.10;3.08;;;;;;;;;;5046834;28;20118;-66
2022/05/26 07:21:48;;;;;;;16.70;3.80;;;;;;;;;;5060936;28;20078;-66
2022/05/26 07:24:19;;;;;;;13.05;3.55;;;;;;;;;;5061414;28;20060;-66
2022/05/26 07:26:47;;;;;;;12.60;3.35;;;;;;;;;;5061216;28;20153;-65
2022/05/26 07:29:14;;;;;;;12.37;3.27;;;;;;;;;;5053996;28;20052;-66
2022/05/26 07:31:41;;;;;;;12.68;3.88;;;;;;;;;;5056842;28;20131;-67
2022/05/26 07:34:15;;;;;;;14.35;3.38;;;;;;;;;;5031611;28;20065;-66
2022/05/26 07:42:13;;;;;;;17.20;4.28;;;;;;;;;;5057426;28;20467;-66
2022/05/26 07:44:44;;;;;;;11.48;3.58;;;;;;;;;;5062905;28;20128;-66
2022/05/26 07:47:10;;;;;;;17.40;3.72;;;;;;;;;;5045034;28;20048;-67
2022/05/26 07:49:38;;;;;;;11.32;3.42;;;;;;;;;;5059329;28;20786;-67
2022/05/26 07:52:05;;;;;;;12.93;3.30;;;;;;;;;;5053488;28;20048;-66
2022/05/26 07:54:31;;;;;;;10.25;3.00;;;;;;;;;;5063347;28;20135;-67
2022/05/26 07:56:59;;;;;;;13.80;3.17;;;;;;;;;;5061539;28;20048;-67
2022/05/26 07:59:25;;;;;;;9.53;3.13;;;;;;;;;;5044756;28;20145;-67
2022/05/26 08:01:52;;;;;;;7.18;2.92;;;;;;;;;;5065561;28;20134;-66
2022/05/26 08:04:18;;;;;;;8.52;2.10;;;;;;;;;;5054219;28;20497;-67
2022/05/26 08:06:48;;;;;;;7.10;1.88;;;;;;;;;;5060644;28;20056;-66
2022/05/26 08:09:15;;;;;;;13.07;2.63;;;;;;;;;;5048144;28;20532;-66
2022/05/26 08:11:42;;;;;;;9.98;3.28;;;;;;;;;;5061244;28;20566;-66
2022/05/26 08:14:09;;;;;;;14.25;3.60;;;;;;;;;;5050086;28;20148;-66
2022/05/26 08:16:36;;;;;;;13.65;3.45;;;;;;;;;;5050840;28;20413;-67
2022/05/26 08:19:03;;;;;;;17.25;3.83;;;;;;;;;;5064071;28;20056;-66
2022/05/26 08:21:30;;;;;;;9.30;3.50;;;;;;;;;;5068016;28;20055;-67
2022/05/26 08:23:56;;;;;;;17.77;4.07;;;;;;;;;;5076258;28;20044;-66
2022/05/26 08:26:23;;;;;;;8.50;2.85;;;;;;;;;;5081285;28;20143;-66
2022/05/26 08:28:49;;;;;;;8.80;2.45;;;;;;;;;;5064140;28;20544;-66
2022/05/26 08:31:16;;;;;;;6.78;2.67;;;;;;;;;;5069100;28;20051;-67
2022/05/26 08:33:42;;;;;;;9.57;2.30;;;;;;;;;;5061493;28;20549;-67
2022/05/26 08:36:09;;;;;;;10.32;2.92;;;;;;;;;;5059533;28;20080;-66
2022/05/26 08:38:36;;;;;;;8.30;2.38;;;;;;;;;;5074609;28;20048;-66
2022/05/26 08:41:03;;;;;;;6.90;2.08;;;;;;;;;;5086638;28;20423;-66
2022/05/26 08:43:41;;;;;;;7.88;2.08;;;;;;;;;;5072523;28;20648;-66
2022/05/26 08:46:12;;;;;;;8.38;2.10;;;;;;;;;;5068848;28;20048;-67
2022/05/26 08:48:44;;;;;;;9.07;2.20;;;;;;;;;;5068889;28;20511;-67
2022/05/26 08:51:13;;;;;;;8.50;2.00;;;;;;;;;;5062403;28;20143;-67
2022/05/26 08:53:41;;;;;;;6.60;2.03;;;;;;;;;;5064512;28;20107;-67
2022/05/26 08:56:12;;;;;;;7.07;2.33;;;;;;;;;;5056576;28;20052;-67
2022/05/26 08:58:46;;;;;;;5.70;2.40;;;;;;;;;;5057102;28;20447;-67
2022/05/26 09:01:20;;;;;;;9.00;2.05;;;;;;;;;;5041803;28;20064;-67
2022/05/26 09:03:47;;;;;;;9.20;2.15;;;;;;;;;;5065145;28;20056;-66
2022/05/26 09:06:15;;;;;;;8.45;2.15;;;;;;;;;;5068206;28;20048;-66
2022/05/26 09:14:29;;;;;;;8.48;2.35;;;;;;;;;;5063589;28;20123;-67
2022/05/26 09:16:57;;;;;;;10.45;2.10;;;;;;;;;;5068642;28;20148;-66
2022/05/26 09:19:23;;;;;;;6.03;2.17;;;;;;;;;;5062485;28;20052;-66
2022/05/26 09:21:50;;;;;;;6.30;1.85;;;;;;;;;;5064028;28;20163;-66
2022/05/26 09:24:25;;;;;;;7.88;2.25;;;;;;;;;;5057495;28;20049;-66
2022/05/26 09:26:56;;;;;;;8.93;2.30;;;;;;;;;;5068371;28;20053;-66
2022/05/26 09:29:30;;;;;;;5.70;1.92;;;;;;;;;;5062093;28;20058;-66
2022/05/26 09:31:58;;;;;;;6.63;2.22;;;;;;;;;;5069102;28;20135;-67
2022/05/26 09:35:01;;;;;;;7.30;2.20;;;;;;;;;;5058448;28;20059;-66
2022/05/26 09:37:38;;;;;;;7.32;2.50;;;;;;;;;;5044498;28;20051;-66
2022/05/26 09:40:30;;;;;;;10.82;2.65;;;;;;;;;;5068439;28;20051;-67
2022/05/26 09:43:04;;;;;;;10.48;3.15;;;;;;;;;;5063600;28;20139;-67
2022/05/26 09:45:44;;;;;;;6.15;2.63;;;;;;;;;;5068813;28;20410;-67
2022/05/26 09:48:16;;;;;;;6.68;2.28;;;;;;;;;;5032145;28;20490;-67
2022/05/26 09:50:49;;;;;;;7.82;2.10;;;;;;;;;;5040137;28;20065;-67
2022/05/26 09:53:27;;;;;;;8.07;2.25;;;;;;;;;;5039359;28;20135;-67
2022/05/26 09:55:55;;;;;;;5.82;1.77;;;;;;;;;;5048098;28;20140;-67
2022/05/26 09:58:42;;;;;;;7.28;1.50;;;;;;;;;;5049699;28;20083;-66
2022/05/26 10:01:15;;;;;;;5.90;1.90;;;;;;;;;;5072399;28;20051;-67
2022/05/26 10:03:51;;;;;;;7.50;2.28;;;;;;;;;;5064493;28;20082;-67
2022/05/26 10:06:31;;;;;;;4.90;1.35;;;;;;;;;;5072615;28;20128;-67
2022/05/26 10:09:16;;;;;;;5.15;1.20;;;;;;;;;;5069523;28;20052;-67
2022/05/26 10:11:46;;;;;;;6.70;1.30;;;;;;;;;;5053975;28;20113;-66
2022/05/26 10:14:15;;;;;;;7.28;1.23;;;;;;;;;;5067860;28;20040;-67
2022/05/26 10:16:51;;;;;;;8.38;1.33;;;;;;;;;;5061026;28;20051;-67
2022/05/26 10:19:31;;;;;;;4.55;1.20;;;;;;;;;;5072166;28;20049;-67
2022/05/26 10:22:00;;;;;;;5.88;1.48;;;;;;;;;;5066391;28;20067;-66
2022/05/26 10:24:34;;;;;;;5.47;1.50;;;;;;;;;;5071849;28;20094;-67
2022/05/26 10:27:03;;;;;;;7.10;1.58;;;;;;;;;;5061336;28;20135;-66
2022/05/26 10:29:33;;;;;;;6.00;1.80;;;;;;;;;;5066711;28;20424;-66
2022/05/26 10:32:04;;;;;;;4.97;1.50;;;;;;;;;;5064904;28;20256;-67
2022/05/26 10:34:37;;;;;;;6.65;1.65;;;;;;;;;;5070891;28;20119;-66
2022/05/26 10:37:04;;;;;;;5.85;2.40;;;;;;;;;;5065761;28;20049;-66
2022/05/26 10:39:45;;;;;;;5.75;1.50;;;;;;;;;;5077705;28;20040;-66
2022/05/26 10:42:16;;;;;;;8.63;1.55;;;;;;;;;;5067313;28;20398;-65
2022/05/26 10:44:48;;;;;;;8.52;2.00;;;;;;;;;;5060834;28;20047;-66
2022/05/26 10:47:21;;;;;;;9.02;1.70;;;;;;;;;;5071804;28;20553;-66
2022/05/26 10:49:51;;;;;;;7.40;1.77;;;;;;;;;;5064107;28;20511;-66
2022/05/26 10:52:21;;;;;;;4.25;1.27;;;;;;;;;;5071613;28;20044;-67
2022/05/26 10:54:48;;;;;;;6.32;1.80;;;;;;;;;;5059192;28;20147;-65
2022/05/26 10:57:18;;;;;;;5.93;1.58;;;;;;;;;;5070750;28;20039;-67
2022/05/26 10:59:47;;;;;;;5.25;1.30;;;;;;;;;;5063868;28;20083;-68
2022/05/26 11:02:29;;;;;;;6.10;1.50;;;;;;;;;;5065054;28;20130;-67
2022/05/26 11:05:04;;;;;;;5.27;1.40;;;;;;;;;;5078455;28;20123;-66
2022/05/26 11:07:41;;;;;;;5.45;1.48;;;;;;;;;;5068693;28;20048;-66
2022/05/26 11:10:07;;;;;;;9.40;1.80;;;;;;;;;;5063342;28;20922;-66
2022/05/26 11:12:39;;;;;;;5.55;1.35;;;;;;;;;;5066772;28;20561;-65
2022/05/26 11:18:01;;;;;;;10.70;2.00;;;;;;;;;;5077851;28;20407;-65
2022/05/26 11:20:32;;;;;;;5.25;1.63;;;;;;;;;;5070749;28;20054;-65
2022/05/26 11:23:03;;;;;;;7.32;1.77;;;;;;;;;;5079058;28;20056;-66
2022/05/26 11:25:35;;;;;;;7.40;2.03;;;;;;;;;;5061674;28;20118;-67
2022/05/26 11:28:11;;;;;;;4.78;1.67;;;;;;;;;;5069860;28;20155;-66
2022/05/26 11:36:52;;;;;;;5.15;1.30;;;;;;;;;;5048845;28;20040;-66
2022/05/26 11:39:32;;;;;;;7.10;1.48;;;;;;;;;;5068683;28;20054;-66
2022/05/26 11:42:04;;;;;;;5.25;1.40;;;;;;;;;;5064084;28;20049;-66
2022/05/26 11:44:38;;;;;;;6.18;1.30;;;;;;;;;;5070037;28;20079;-66
2022/05/26 11:47:13;;;;;;;4.20;1.38;;;;;;;;;;5064265;28;20052;-66
2022/05/26 11:49:42;;;;;;;4.43;1.20;;;;;;;;;;5065143;28;20075;-66
2022/05/26 11:52:27;;;;;;;6.20;1.05;;;;;;;;;;5059267;28;20058;-66
2022/05/26 11:54:55;;;;;;;4.88;1.40;;;;;;;;;;5070175;28;20611;-65
2022/05/26 11:57:38;;;;;;;6.72;1.55;;;;;;;;;;5062294;28;20044;-65
2022/05/26 12:00:14;;;;;;;8.18;0.90;;;;;;;;;;5065226;28;20784;-67
2022/05/26 12:02:40;;;;;;;6.93;1.35;;;;;;;;;;5066259;28;20464;-66
2022/05/26 12:05:25;;;;;;;4.57;1.30;;;;;;;;;;5057817;28;20045;-66
2022/05/26 12:07:52;;;;;;;4.97;1.30;;;;;;;;;;5069341;28;20040;-66
2022/05/26 12:10:20;;;;;;;8.05;1.33;;;;;;;;;;5063371;28;20183;-66
2022/05/26 12:12:47;;;;;;;6.38;1.45;;;;;;;;;;5069353;28;20080;-66
2022/05/26 12:15:21;;;;;;;9.52;1.30;;;;;;;;;;5062520;28;20059;-66
2022/05/26 12:17:52;;;;;;;7.78;1.38;;;;;;;;;;5046936;28;20063;-66
2022/05/26 12:20:21;;;;;;;6.35;1.40;;;;;;;;;;5058877;28;20124;-68
2022/05/26 12:22:51;;;;;;;5.55;1.48;;;;;;;;;;5068668;28;20079;-66
2022/05/26 12:25:25;;;;;;;4.93;1.52;;;;;;;;;;5069475;28;20048;-66
2022/05/26 12:27:51;;;;;;;6.55;1.33;;;;;;;;;;5062431;28;20509;-66
2022/05/26 12:30:36;;;;;;;6.90;1.63;;;;;;;;;;5080490;28;20051;-67
2022/05/26 12:33:15;;;;;;;10.07;1.60;;;;;;;;;;5057505;28;20356;-66
2022/05/26 12:35:54;;;;;;;4.97;1.20;;;;;;;;;;5058366;28;20135;-66
2022/05/26 12:38:24;;;;;;;4.82;1.58;;;;;;;;;;5052360;28;20492;-66
2022/05/26 12:41:09;;;;;;;5.63;1.25;;;;;;;;;;5069165;28;20063;-66
2022/05/26 12:43:45;;;;;;;6.30;1.75;;;;;;;;;;5062492;28;20048;-66
2022/05/26 12:46:31;;;;;;;6.55;1.52;;;;;;;;;;5061229;28;20430;-66
2022/05/26 12:49:04;;;;;;;8.65;1.40;;;;;;;;;;5060157;28;20133;-66
2022/05/26 12:51:37;;;;;;;7.35;1.60;;;;;;;;;;5075089;28;20123;-66
2022/05/26 12:54:09;;;;;;;5.97;1.27;;;;;;;;;;5073235;28;20123;-66
2022/05/26 12:56:35;;;;;;;4.40;1.27;;;;;;;;;;5067094;28;21219;-67
2022/05/26 12:59:03;;;;;;;6.38;1.25;;;;;;;;;;5057084;28;20131;-66
2022/05/26 13:01:31;;;;;;;5.13;1.55;;;;;;;;;;5051523;28;20393;-67
2022/05/26 13:04:15;;;;;;;5.78;1.70;;;;;;;;;;5068355;28;20040;-66
2022/05/26 13:06:43;;;;;;;5.07;1.42;;;;;;;;;;5058534;28;20408;-66
2022/05/26 13:09:14;;;;;;;7.07;1.73;;;;;;;;;;5072965;28;20123;-66
2022/05/26 13:11:52;;;;;;;7.03;1.63;;;;;;;;;;5059898;28;20040;-66
2022/05/26 13:14:31;;;;;;;5.70;2.05;;;;;;;;;;5051471;28;20048;-66
2022/05/26 13:16:59;;;;;;;8.77;2.03;;;;;;;;;;5068263;28;20127;-66
2022/05/26 13:19:25;;;;;;;8.60;2.63;;;;;;;;;;5060532;28;20127;-66
2022/05/26 13:21:53;;;;;;;7.85;2.00;;;;;;;;;;5068472;28;20095;-66
2022/05/26 13:24:29;;;;;;;6.68;2.35;;;;;;;;;;5061838;28;20049;-66
2022/05/26 13:27:09;;;;;;;8.98;1.98;;;;;;;;;;5063826;28;20079;-66
2022/05/26 13:29:36;;;;;;;10.07;2.30;;;;;;;;;;5068986;28;20097;-66
2022/05/26 13:34:54;;;;;;;7.70;2.80;;;;;;;;;;5058242;28;20036;-66
2022/05/26 13:37:26;;;;;;;7.25;2.70;;;;;;;;;;5062198;28;20048;-66
2022/05/26 13:40:08;;;;;;;9.23;2.95;;;;;;;;;;5066356;28;20045;-66
2022/05/26 13:42:36;;;;;;;9.18;3.20;;;;;;;;;;5062900;28;20076;-66
2022/05/26 13:45:08;;;;;;;9.38;3.42;;;;;;;;;;5067994;28;20482;-66
2022/05/26 13:47:37;;;;;;;8.95;3.20;;;;;;;;;;5061357;28;20041;-66
2022/05/26 13:50:05;;;;;;;12.93;3.25;;;;;;;;;;5075395;28;20048;-66
2022/05/26 13:52:33;;;;;;;8.38;2.97;;;;;;;;;;5066618;28;20483;-66
2022/05/26 13:55:15;;;;;;;9.10;3.47;;;;;;;;;;5063364;28;20062;-66
2022/05/26 13:57:45;;;;;;;9.98;3.70;;;;;;;;;;5053727;28;20063;-66
2022/05/26 14:00:18;;;;;;;12.85;5.40;;;;;;;;;;5064422;28;20052;-66
2022/05/26 14:02:56;;;;;;;12.63;4.95;;;;;;;;;;5067910;28;20048;-67
2022/05/26 14:05:33;;;;;;;13.43;5.07;;;;;;;;;;5067123;28;20080;-66
2022/05/26 14:08:04;;;;;;;12.05;4.35;;;;;;;;;;5064316;28;20045;-66
2022/05/26 14:10:39;;;;;;;9.27;3.70;;;;;;;;;;5054767;28;20071;-66
2022/05/26 14:13:26;;;;;;;10.52;4.20;;;;;;;;;;5067774;28;20091;-66
2022/05/26 14:15:52;;;;;;;8.82;5.03;;;;;;;;;;5061539;28;20801;-67
2022/05/26 14:18:24;;;;;;;11.82;5.38;;;;;;;;;;5068021;28;20151;-66
2022/05/26 14:20:54;;;;;;;11.00;6.03;;;;;;;;;;5061111;28;20083;-67
2022/05/26 14:23:21;;;;;;;10.48;4.95;;;;;;;;;;5060643;28;20127;-67
2022/05/26 14:26:08;;;;;;;11.50;5.75;;;;;;;;;;5058916;28;20127;-67
2022/05/26 14:28:36;;;;;;;11.43;5.13;;;;;;;;;;5021930;28;20043;-67
2022/05/26 14:31:03;;;;;;;11.63;5.20;;;;;;;;;;5076583;28;20040;-66
2022/05/26 14:33:32;;;;;;;13.85;4.72;;;;;;;;;;5036784;28;20041;-66
2022/05/26 14:35:59;;;;;;;10.65;4.28;;;;;;;;;;5047578;28;20152;-67
2022/05/26 14:38:25;;;;;;;12.88;4.43;;;;;;;;;;5056684;28;20524;-66
2022/05/26 14:40:52;;;;;;;8.68;3.67;;;;;;;;;;5067524;28;20127;-66
2022/05/26 14:43:21;;;;;;;11.55;3.67;;;;;;;;;;5060823;28;20051;-66
2022/05/26 14:45:48;;;;;;;9.23;3.90;;;;;;;;;;5068835;28;20048;-66
2022/05/26 14:48:14;;;;;;;9.32;3.92;;;;;;;;;;5071564;28;20051;-66
2022/05/26 14:50:41;;;;;;;9.63;3.75;;;;;;;;;;5070679;28;20054;-66
2022/05/26 14:53:09;;;;;;;8.85;3.75;;;;;;;;;;5067878;28;20144;-67
2022/05/26 14:55:38;;;;;;;9.02;3.03;;;;;;;;;;5064376;28;20412;-66
2022/05/26 14:58:06;;;;;;;9.85;3.80;;;;;;;;;;5065137;28;20053;-66
2022/05/26 15:00:35;;;;;;;11.70;4.18;;;;;;;;;;5070118;28;20161;-66
2022/05/26 15:03:02;;;;;;;7.90;3.67;;;;;;;;;;5072538;28;20467;-66
2022/05/26 15:05:28;;;;;;;9.40;3.40;;;;;;;;;;5064580;28;20285;-66
2022/05/26 15:07:55;;;;;;;11.27;3.53;;;;;;;;;;5064345;28;20087;-66
2022/05/26 15:10:22;;;;;;;8.50;3.15;;;;;;;;;;5083461;28;20050;-66
2022/05/26 15:12:48;;;;;;;10.10;3.88;;;;;;;;;;5064316;28;20481;-66
2022/05/26 15:15:16;;;;;;;12.35;3.55;;;;;;;;;;5070804;28;20048;-66
2022/05/26 15:17:43;;;;;;;;;;;;;;;;;;5063031;28;20044;-66
2022/05/26 15:20:11;;;;;;;9.48;3.53;;;;;;;;;;5070669;28;20031;-66
2022/05/26 15:22:38;;;;;;;12.57;4.03;;;;;;;;;;5069925;28;20040;-66
2022/05/26 15:25:05;;;;;;;11.20;3.53;;;;;;;;;;5077262;28;20048;-66
2022/05/26 15:27:32;;;;;;;12.85;3.35;;;;;;;;;;5066208;28;20049;-66
2022/05/26 15:29:59;;;;;;;7.68;2.58;;;;;;;;;;5061489;28;20044;-66
2022/05/26 15:32:36;;;;;;;6.78;2.80;;;;;;;;;;5080196;28;20052;-66